sensor_id;sensor_type;location;lat;lon;timestamp;temperature;humidity
7046;DHT22;3564;53.326;10.356;2022-10-16T00:02:00;17.70;99.90
7046;DHT22;3564;53.326;10.356;2022-10-16T00:04:26;17.70;99.90
7046;DHT22;3564;53.326;10.356;2022-10-16T00:06:52;17.70;99.90
7046;DHT22;3564;53.326;10.356;2022-10-16T00:09:17;17.60;99.90
7046;DHT22;3564;53.326;10.356;2022-10-16T00:11:43;17.60;99.90
7046;DHT22;3564;53.326;10.356;2022-10-16T00:14:11;17.60;99.90
7046;DHT22;3564;53.326;10.356;2022-10-16T00:16:38;17.60;99.90
7046;DHT22;3564;53.326;10.356;2022-10-16T00:19:04;17.60;99.90
7046;DHT22;3564;53.326;10.356;2022-10-16T00:21:33;17.60;99.90
7046;DHT22;3564;53.326;10.356;2022-10-16T00:24:01;17.60;99.90
7046;DHT22;3564;53.326;10.356;2022-10-16T00:26:28;17.60;99.90
7046;DHT22;3564;53.326;10.356;2022-10-16T00:28:53;17.50;99.90
7046;DHT22;3564;53.326;10.356;2022-10-16T00:31:21;17.50;99.90
7046;DHT22;3564;53.326;10.356;2022-10-16T00:33:47;17.50;99.90
7046;DHT22;3564;53.326;10.356;2022-10-16T00:36:15;17.50;99.90
7046;DHT22;3564;53.326;10.356;2022-10-16T00:38:41;17.40;99.90
7046;DHT22;3564;53.326;10.356;2022-10-16T00:41:09;17.40;99.90
7046;DHT22;3564;53.326;10.356;2022-10-16T00:43:46;17.40;99.90
7046;DHT22;3564;53.326;10.356;2022-10-16T00:46:31;17.40;99.90
7046;DHT22;3564;53.326;10.356;2022-10-16T00:49:14;17.30;99.90
7046;DHT22;3564;53.326;10.356;2022-10-16T00:51:47;17.30;99.90
7046;DHT22;3564;53.326;10.356;2022-10-16T00:54:45;17.30;99.90
7046;DHT22;3564;53.326;10.356;2022-10-16T00:57:11;17.30;99.90
7046;DHT22;3564;53.326;10.356;2022-10-16T00:59:39;17.30;99.90
7046;DHT22;3564;53.326;10.356;2022-10-16T01:02:08;17.30;99.90
7046;DHT22;3564;53.326;10.356;2022-10-16T01:04:40;17.30;99.90
7046;DHT22;3564;53.326;10.356;2022-10-16T01:13:09;17.30;99.90
7046;DHT22;3564;53.326;10.356;2022-10-16T01:21:01;17.20;99.90
7046;DHT22;3564;53.326;10.356;2022-10-16T01:26:09;17.20;99.90
7046;DHT22;3564;53.326;10.356;2022-10-16T01:29:29;17.10;99.90
7046;DHT22;3564;53.326;10.356;2022-10-16T01:32:18;17.10;99.90
7046;DHT22;3564;53.326;10.356;2022-10-16T01:34:53;17.20;99.90
7046;DHT22;3564;53.326;10.356;2022-10-16T01:37:55;17.10;99.90
7046;DHT22;3564;53.326;10.356;2022-10-16T01:40:24;17.10;99.90
7046;DHT22;3564;53.326;10.356;2022-10-16T01:43:02;17.20;99.90
7046;DHT22;3564;53.326;10.356;2022-10-16T01:45:31;17.10;99.90
7046;DHT22;3564;53.326;10.356;2022-10-16T01:47:59;17.10;99.90
7046;DHT22;3564;53.326;10.356;2022-10-16T01:50:26;17.10;99.90
7046;DHT22;3564;53.326;10.356;2022-10-16T01:52:53;17.20;99.90
7046;DHT22;3564;53.326;10.356;2022-10-16T01:55:33;17.10;99.90
7046;DHT22;3564;53.326;10.356;2022-10-16T01:58:18;17.10;99.90
7046;DHT22;3564;53.326;10.356;2022-10-16T02:00:44;17.00;99.90
7046;DHT22;3564;53.326;10.356;2022-10-16T02:03:31;17.00;99.90
7046;DHT22;3564;53.326;10.356;2022-10-16T02:06:16;17.00;99.90
7046;DHT22;3564;53.326;10.356;2022-10-16T02:08:42;17.00;99.90
7046;DHT22;3564;53.326;10.356;2022-10-16T02:11:10;16.90;99.90
7046;DHT22;3564;53.326;10.356;2022-10-16T02:13:43;16.90;99.90
7046;DHT22;3564;53.326;10.356;2022-10-16T02:16:12;16.90;99.90
7046;DHT22;3564;53.326;10.356;2022-10-16T02:18:40;17.00;99.90
7046;DHT22;3564;53.326;10.356;2022-10-16T02:21:14;17.00;99.90
7046;DHT22;3564;53.326;10.356;2022-10-16T02:23:54;17.00;99.90
7046;DHT22;3564;53.326;10.356;2022-10-16T02:26:41;16.90;99.90
7046;DHT22;3564;53.326;10.356;2022-10-16T02:29:12;17.00;99.90
7046;DHT22;3564;53.326;10.356;2022-10-16T02:31:43;16.90;99.90
7046;DHT22;3564;53.326;10.356;2022-10-16T02:34:11;16.90;99.90
7046;DHT22;3564;53.326;10.356;2022-10-16T02:36:39;17.00;99.90
7046;DHT22;3564;53.326;10.356;2022-10-16T02:39:06;17.00;99.90
7046;DHT22;3564;53.326;10.356;2022-10-16T02:41:32;16.90;99.90
7046;DHT22;3564;53.326;10.356;2022-10-16T02:43:58;16.90;99.90
7046;DHT22;3564;53.326;10.356;2022-10-16T02:46:23;16.90;99.90
7046;DHT22;3564;53.326;10.356;2022-10-16T02:48:49;16.90;99.90
7046;DHT22;3564;53.326;10.356;2022-10-16T02:51:14;16.90;99.90
7046;DHT22;3564;53.326;10.356;2022-10-16T02:53:40;16.80;99.90
7046;DHT22;3564;53.326;10.356;2022-10-16T02:56:06;16.80;99.90
7046;DHT22;3564;53.326;10.356;2022-10-16T02:58:37;16.80;99.90
7046;DHT22;3564;53.326;10.356;2022-10-16T03:01:03;16.70;99.90
7046;DHT22;3564;53.326;10.356;2022-10-16T03:03:29;16.70;99.90
7046;DHT22;3564;53.326;10.356;2022-10-16T03:05:55;16.70;99.90
7046;DHT22;3564;53.326;10.356;2022-10-16T03:08:21;16.70;99.90
7046;DHT22;3564;53.326;10.356;2022-10-16T03:10:49;16.60;99.90
7046;DHT22;3564;53.326;10.356;2022-10-16T03:13:15;16.60;99.90
7046;DHT22;3564;53.326;10.356;2022-10-16T03:15:41;16.60;99.90
7046;DHT22;3564;53.326;10.356;2022-10-16T03:18:06;16.60;99.90
7046;DHT22;3564;53.326;10.356;2022-10-16T03:20:32;16.60;99.90
7046;DHT22;3564;53.326;10.356;2022-10-16T03:22:57;16.60;99.90
7046;DHT22;3564;53.326;10.356;2022-10-16T03:25:23;16.60;99.90
7046;DHT22;3564;53.326;10.356;2022-10-16T03:27:49;16.60;99.90
7046;DHT22;3564;53.326;10.356;2022-10-16T03:30:16;16.60;99.90
7046;DHT22;3564;53.326;10.356;2022-10-16T03:32:42;16.50;99.90
7046;DHT22;3564;53.326;10.356;2022-10-16T03:35:09;16.50;99.90
7046;DHT22;3564;53.326;10.356;2022-10-16T03:37:34;16.50;99.90
7046;DHT22;3564;53.326;10.356;2022-10-16T03:40:00;16.60;99.90
7046;DHT22;3564;53.326;10.356;2022-10-16T03:42:25;16.50;99.90
7046;DHT22;3564;53.326;10.356;2022-10-16T03:44:51;16.50;99.90
7046;DHT22;3564;53.326;10.356;2022-10-16T03:47:16;16.50;99.90
7046;DHT22;3564;53.326;10.356;2022-10-16T03:49:45;16.50;99.90
7046;DHT22;3564;53.326;10.356;2022-10-16T03:52:12;16.50;99.90
7046;DHT22;3564;53.326;10.356;2022-10-16T03:54:38;16.50;99.90
7046;DHT22;3564;53.326;10.356;2022-10-16T03:57:03;16.50;99.90
7046;DHT22;3564;53.326;10.356;2022-10-16T03:59:29;16.40;99.90
7046;DHT22;3564;53.326;10.356;2022-10-16T04:01:54;16.40;99.90
7046;DHT22;3564;53.326;10.356;2022-10-16T04:04:20;16.40;99.90
7046;DHT22;3564;53.326;10.356;2022-10-16T04:06:45;16.40;99.90
7046;DHT22;3564;53.326;10.356;2022-10-16T04:09:11;16.40;99.90
7046;DHT22;3564;53.326;10.356;2022-10-16T04:11:36;16.40;99.90
7046;DHT22;3564;53.326;10.356;2022-10-16T04:14:02;16.40;99.90
7046;DHT22;3564;53.326;10.356;2022-10-16T04:16:28;16.40;99.90
7046;DHT22;3564;53.326;10.356;2022-10-16T04:18:53;16.40;99.90
7046;DHT22;3564;53.326;10.356;2022-10-16T04:21:20;16.30;99.90
7046;DHT22;3564;53.326;10.356;2022-10-16T04:23:45;16.30;99.90
7046;DHT22;3564;53.326;10.356;2022-10-16T04:26:11;16.30;99.90
7046;DHT22;3564;53.326;10.356;2022-10-16T04:28:37;16.30;99.90
7046;DHT22;3564;53.326;10.356;2022-10-16T04:31:06;16.30;99.90
7046;DHT22;3564;53.326;10.356;2022-10-16T04:33:32;16.20;99.90
7046;DHT22;3564;53.326;10.356;2022-10-16T04:35:59;16.30;99.90
7046;DHT22;3564;53.326;10.356;2022-10-16T04:38:25;16.30;99.90
7046;DHT22;3564;53.326;10.356;2022-10-16T04:40:51;16.30;99.90
7046;DHT22;3564;53.326;10.356;2022-10-16T04:43:17;16.30;99.90
7046;DHT22;3564;53.326;10.356;2022-10-16T04:45:43;16.30;99.90
7046;DHT22;3564;53.326;10.356;2022-10-16T04:48:09;16.30;99.90
7046;DHT22;3564;53.326;10.356;2022-10-16T04:50:34;16.30;99.90
7046;DHT22;3564;53.326;10.356;2022-10-16T04:53:00;16.20;99.90
7046;DHT22;3564;53.326;10.356;2022-10-16T04:55:25;16.20;99.90
7046;DHT22;3564;53.326;10.356;2022-10-16T04:57:51;16.20;99.90
7046;DHT22;3564;53.326;10.356;2022-10-16T05:00:16;16.20;99.90
7046;DHT22;3564;53.326;10.356;2022-10-16T05:02:42;16.10;99.90
7046;DHT22;3564;53.326;10.356;2022-10-16T05:05:08;16.10;99.90
7046;DHT22;3564;53.326;10.356;2022-10-16T05:07:33;16.10;99.90
7046;DHT22;3564;53.326;10.356;2022-10-16T05:09:59;16.10;99.90
7046;DHT22;3564;53.326;10.356;2022-10-16T05:12:24;16.20;99.90
7046;DHT22;3564;53.326;10.356;2022-10-16T05:14:50;16.20;99.90
7046;DHT22;3564;53.326;10.356;2022-10-16T05:17:15;16.20;99.90
7046;DHT22;3564;53.326;10.356;2022-10-16T05:19:41;16.20;99.90
7046;DHT22;3564;53.326;10.356;2022-10-16T05:22:06;16.20;99.90
7046;DHT22;3564;53.326;10.356;2022-10-16T05:24:32;16.20;99.90
7046;DHT22;3564;53.326;10.356;2022-10-16T05:26:58;16.20;99.90
7046;DHT22;3564;53.326;10.356;2022-10-16T05:29:23;16.10;99.90
7046;DHT22;3564;53.326;10.356;2022-10-16T05:31:53;16.10;99.90
7046;DHT22;3564;53.326;10.356;2022-10-16T05:34:20;16.10;99.90
7046;DHT22;3564;53.326;10.356;2022-10-16T05:36:45;16.10;99.90
7046;DHT22;3564;53.326;10.356;2022-10-16T05:39:13;16.10;99.90
7046;DHT22;3564;53.326;10.356;2022-10-16T05:41:39;16.10;99.90
7046;DHT22;3564;53.326;10.356;2022-10-16T05:44:05;16.10;99.90
7046;DHT22;3564;53.326;10.356;2022-10-16T05:46:31;16.10;99.90
7046;DHT22;3564;53.326;10.356;2022-10-16T05:48:57;16.10;99.90
7046;DHT22;3564;53.326;10.356;2022-10-16T05:51:22;16.00;99.90
7046;DHT22;3564;53.326;10.356;2022-10-16T05:53:48;16.00;99.90
7046;DHT22;3564;53.326;10.356;2022-10-16T05:56:14;16.00;99.90
7046;DHT22;3564;53.326;10.356;2022-10-16T05:58:40;16.10;99.90
7046;DHT22;3564;53.326;10.356;2022-10-16T06:01:11;16.10;99.90
7046;DHT22;3564;53.326;10.356;2022-10-16T06:03:37;16.10;99.90
7046;DHT22;3564;53.326;10.356;2022-10-16T06:06:10;16.10;99.90
7046;DHT22;3564;53.326;10.356;2022-10-16T06:08:40;16.10;99.90
7046;DHT22;3564;53.326;10.356;2022-10-16T06:11:10;16.10;99.90
7046;DHT22;3564;53.326;10.356;2022-10-16T06:13:36;16.10;99.90
7046;DHT22;3564;53.326;10.356;2022-10-16T06:16:02;16.20;99.90
7046;DHT22;3564;53.326;10.356;2022-10-16T06:18:29;16.20;99.90
7046;DHT22;3564;53.326;10.356;2022-10-16T06:20:55;16.20;99.90
7046;DHT22;3564;53.326;10.356;2022-10-16T06:23:21;16.30;99.90
7046;DHT22;3564;53.326;10.356;2022-10-16T06:25:47;16.20;99.90
7046;DHT22;3564;53.326;10.356;2022-10-16T06:28:14;16.30;99.90
7046;DHT22;3564;53.326;10.356;2022-10-16T06:30:40;16.30;99.90
7046;DHT22;3564;53.326;10.356;2022-10-16T06:33:10;16.30;99.90
7046;DHT22;3564;53.326;10.356;2022-10-16T06:35:36;16.30;99.90
7046;DHT22;3564;53.326;10.356;2022-10-16T06:38:02;16.20;99.90
7046;DHT22;3564;53.326;10.356;2022-10-16T06:40:27;16.20;99.90
7046;DHT22;3564;53.326;10.356;2022-10-16T06:42:55;16.20;99.90
7046;DHT22;3564;53.326;10.356;2022-10-16T06:45:20;16.20;99.90
7046;DHT22;3564;53.326;10.356;2022-10-16T06:47:46;16.30;99.90
7046;DHT22;3564;53.326;10.356;2022-10-16T06:50:11;16.30;99.90
7046;DHT22;3564;53.326;10.356;2022-10-16T06:52:37;16.30;99.90
7046;DHT22;3564;53.326;10.356;2022-10-16T06:55:03;16.30;99.90
7046;DHT22;3564;53.326;10.356;2022-10-16T06:57:29;16.30;99.90
7046;DHT22;3564;53.326;10.356;2022-10-16T06:59:54;16.30;99.90
7046;DHT22;3564;53.326;10.356;2022-10-16T07:02:20;16.30;99.90
7046;DHT22;3564;53.326;10.356;2022-10-16T07:04:45;16.30;99.90
7046;DHT22;3564;53.326;10.356;2022-10-16T07:07:11;16.30;99.90
7046;DHT22;3564;53.326;10.356;2022-10-16T07:09:36;16.30;99.90
7046;DHT22;3564;53.326;10.356;2022-10-16T07:12:02;16.30;99.90
7046;DHT22;3564;53.326;10.356;2022-10-16T07:14:28;16.30;99.90
7046;DHT22;3564;53.326;10.356;2022-10-16T07:16:55;16.30;99.90
7046;DHT22;3564;53.326;10.356;2022-10-16T07:19:20;16.30;99.90
7046;DHT22;3564;53.326;10.356;2022-10-16T07:21:46;16.30;99.90
7046;DHT22;3564;53.326;10.356;2022-10-16T07:24:14;16.30;99.90
7046;DHT22;3564;53.326;10.356;2022-10-16T07:26:42;16.30;99.90
7046;DHT22;3564;53.326;10.356;2022-10-16T07:29:14;16.30;99.90
7046;DHT22;3564;53.326;10.356;2022-10-16T07:31:40;16.30;99.90
7046;DHT22;3564;53.326;10.356;2022-10-16T07:34:06;16.30;99.90
7046;DHT22;3564;53.326;10.356;2022-10-16T07:36:32;16.30;99.90
7046;DHT22;3564;53.326;10.356;2022-10-16T07:38:57;16.30;99.90
7046;DHT22;3564;53.326;10.356;2022-10-16T07:41:23;16.40;99.90
7046;DHT22;3564;53.326;10.356;2022-10-16T07:43:51;16.40;99.90
7046;DHT22;3564;53.326;10.356;2022-10-16T07:46:19;16.50;99.90
7046;DHT22;3564;53.326;10.356;2022-10-16T07:48:45;16.50;99.90
7046;DHT22;3564;53.326;10.356;2022-10-16T07:51:13;16.50;99.90
7046;DHT22;3564;53.326;10.356;2022-10-16T07:53:39;16.50;99.90
7046;DHT22;3564;53.326;10.356;2022-10-16T07:56:06;16.40;99.90
7046;DHT22;3564;53.326;10.356;2022-10-16T07:58:33;16.50;99.90
7046;DHT22;3564;53.326;10.356;2022-10-16T08:00:59;16.50;99.90
7046;DHT22;3564;53.326;10.356;2022-10-16T08:03:28;16.50;99.90
7046;DHT22;3564;53.326;10.356;2022-10-16T08:05:53;16.40;99.90
7046;DHT22;3564;53.326;10.356;2022-10-16T08:08:19;16.40;99.90
7046;DHT22;3564;53.326;10.356;2022-10-16T08:10:45;16.50;99.90
7046;DHT22;3564;53.326;10.356;2022-10-16T08:13:12;16.50;99.90
7046;DHT22;3564;53.326;10.356;2022-10-16T08:15:40;16.50;99.90
7046;DHT22;3564;53.326;10.356;2022-10-16T08:18:06;16.60;99.90
7046;DHT22;3564;53.326;10.356;2022-10-16T08:20:32;16.60;99.90
7046;DHT22;3564;53.326;10.356;2022-10-16T08:23:00;16.60;99.90
7046;DHT22;3564;53.326;10.356;2022-10-16T08:25:26;16.70;99.90
7046;DHT22;3564;53.326;10.356;2022-10-16T08:27:52;16.70;99.90
7046;DHT22;3564;53.326;10.356;2022-10-16T08:30:19;16.80;99.90
7046;DHT22;3564;53.326;10.356;2022-10-16T08:32:45;16.80;99.90
7046;DHT22;3564;53.326;10.356;2022-10-16T08:35:12;16.80;99.90
7046;DHT22;3564;53.326;10.356;2022-10-16T08:37:38;16.80;99.90
7046;DHT22;3564;53.326;10.356;2022-10-16T08:40:07;16.80;99.90
7046;DHT22;3564;53.326;10.356;2022-10-16T08:42:55;16.90;99.90
7046;DHT22;3564;53.326;10.356;2022-10-16T08:45:34;16.90;99.90
7046;DHT22;3564;53.326;10.356;2022-10-16T08:48:20;16.90;99.90
7046;DHT22;3564;53.326;10.356;2022-10-16T08:50:50;17.00;99.90
7046;DHT22;3564;53.326;10.356;2022-10-16T08:53:24;17.00;99.90
7046;DHT22;3564;53.326;10.356;2022-10-16T08:55:52;17.10;99.90
7046;DHT22;3564;53.326;10.356;2022-10-16T08:58:25;17.00;99.90
7046;DHT22;3564;53.326;10.356;2022-10-16T09:01:16;17.10;99.90
7046;DHT22;3564;53.326;10.356;2022-10-16T09:06:57;17.10;99.90
7046;DHT22;3564;53.326;10.356;2022-10-16T09:09:53;17.20;99.90
7046;DHT22;3564;53.326;10.356;2022-10-16T09:15:17;17.30;99.90
7046;DHT22;3564;53.326;10.356;2022-10-16T09:17:58;17.40;99.90
7046;DHT22;3564;53.326;10.356;2022-10-16T09:20:36;17.40;99.90
7046;DHT22;3564;53.326;10.356;2022-10-16T09:25:29;17.60;99.90
7046;DHT22;3564;53.326;10.356;2022-10-16T09:27:56;17.60;99.90
7046;DHT22;3564;53.326;10.356;2022-10-16T09:30:22;17.70;99.90
7046;DHT22;3564;53.326;10.356;2022-10-16T09:32:52;17.70;99.90
7046;DHT22;3564;53.326;10.356;2022-10-16T09:35:38;17.80;99.90
7046;DHT22;3564;53.326;10.356;2022-10-16T09:38:06;17.90;99.90
7046;DHT22;3564;53.326;10.356;2022-10-16T09:40:35;18.00;99.90
7046;DHT22;3564;53.326;10.356;2022-10-16T09:46:05;18.00;99.90
7046;DHT22;3564;53.326;10.356;2022-10-16T09:48:44;18.10;99.90
7046;DHT22;3564;53.326;10.356;2022-10-16T09:51:25;18.20;99.90
7046;DHT22;3564;53.326;10.356;2022-10-16T09:54:19;18.20;99.90
7046;DHT22;3564;53.326;10.356;2022-10-16T09:56:48;18.40;99.90
7046;DHT22;3564;53.326;10.356;2022-10-16T09:59:22;18.40;99.90
7046;DHT22;3564;53.326;10.356;2022-10-16T10:01:54;18.50;99.90
7046;DHT22;3564;53.326;10.356;2022-10-16T10:04:22;18.50;99.90
7046;DHT22;3564;53.326;10.356;2022-10-16T10:06:51;18.60;99.90
7046;DHT22;3564;53.326;10.356;2022-10-16T10:09:28;18.60;99.90
7046;DHT22;3564;53.326;10.356;2022-10-16T10:11:59;18.70;99.90
7046;DHT22;3564;53.326;10.356;2022-10-16T10:14:38;18.80;99.90
7046;DHT22;3564;53.326;10.356;2022-10-16T10:19:39;18.80;99.90
7046;DHT22;3564;53.326;10.356;2022-10-16T10:22:18;19.00;99.90
7046;DHT22;3564;53.326;10.356;2022-10-16T10:35:53;19.40;99.90
7046;DHT22;3564;53.326;10.356;2022-10-16T10:44:07;19.60;99.90
7046;DHT22;3564;53.326;10.356;2022-10-16T10:46:56;19.80;99.90
7046;DHT22;3564;53.326;10.356;2022-10-16T10:49:39;19.80;99.90
7046;DHT22;3564;53.326;10.356;2022-10-16T10:52:13;20.00;99.90
7046;DHT22;3564;53.326;10.356;2022-10-16T10:57:34;20.10;99.30
7046;DHT22;3564;53.326;10.356;2022-10-16T11:00:09;20.10;98.80
7046;DHT22;3564;53.326;10.356;2022-10-16T11:08:36;20.10;98.30
7046;DHT22;3564;53.326;10.356;2022-10-16T11:16:38;20.20;97.60
7046;DHT22;3564;53.326;10.356;2022-10-16T11:19:12;20.20;97.30
7046;DHT22;3564;53.326;10.356;2022-10-16T11:21:51;20.20;97.60
7046;DHT22;3564;53.326;10.356;2022-10-16T11:24:42;20.30;97.50
7046;DHT22;3564;53.326;10.356;2022-10-16T11:27:15;20.30;97.60
7046;DHT22;3564;53.326;10.356;2022-10-16T11:30:05;20.30;97.40
7046;DHT22;3564;53.326;10.356;2022-10-16T11:32:35;20.40;97.70
7046;DHT22;3564;53.326;10.356;2022-10-16T11:35:17;20.40;97.60
7046;DHT22;3564;53.326;10.356;2022-10-16T11:37:46;20.30;97.40
7046;DHT22;3564;53.326;10.356;2022-10-16T11:40:31;20.30;97.40
7046;DHT22;3564;53.326;10.356;2022-10-16T11:45:45;20.20;97.30
7046;DHT22;3564;53.326;10.356;2022-10-16T11:48:23;20.20;97.80
7046;DHT22;3564;53.326;10.356;2022-10-16T11:50:58;20.20;97.20
7046;DHT22;3564;53.326;10.356;2022-10-16T11:56:00;20.10;97.70
7046;DHT22;3564;53.326;10.356;2022-10-16T12:01:10;20.30;97.60
7046;DHT22;3564;53.326;10.356;2022-10-16T12:06:28;20.40;97.20
7046;DHT22;3564;53.326;10.356;2022-10-16T12:08:57;20.50;97.50
7046;DHT22;3564;53.326;10.356;2022-10-16T12:11:34;20.50;96.90
7046;DHT22;3564;53.326;10.356;2022-10-16T12:14:21;20.50;97.00
7046;DHT22;3564;53.326;10.356;2022-10-16T12:17:04;20.50;97.00
7046;DHT22;3564;53.326;10.356;2022-10-16T12:22:54;20.50;96.70
7046;DHT22;3564;53.326;10.356;2022-10-16T12:25:40;20.40;96.90
7046;DHT22;3564;53.326;10.356;2022-10-16T12:28:21;20.40;96.50
7046;DHT22;3564;53.326;10.356;2022-10-16T12:30:56;20.50;96.60
7046;DHT22;3564;53.326;10.356;2022-10-16T12:33:26;20.40;96.20
7046;DHT22;3564;53.326;10.356;2022-10-16T12:35:52;20.40;96.30
7046;DHT22;3564;53.326;10.356;2022-10-16T12:38:27;20.30;96.50
7046;DHT22;3564;53.326;10.356;2022-10-16T12:41:09;20.30;96.90
7046;DHT22;3564;53.326;10.356;2022-10-16T12:43:37;20.30;96.90
7046;DHT22;3564;53.326;10.356;2022-10-16T12:46:20;20.40;97.10
7046;DHT22;3564;53.326;10.356;2022-10-16T12:48:48;20.40;96.90
7046;DHT22;3564;53.326;10.356;2022-10-16T12:51:34;20.40;96.80
7046;DHT22;3564;53.326;10.356;2022-10-16T12:54:19;20.50;97.00
7046;DHT22;3564;53.326;10.356;2022-10-16T12:57:25;20.50;96.80
7046;DHT22;3564;53.326;10.356;2022-10-16T13:05:25;20.40;96.20
7046;DHT22;3564;53.326;10.356;2022-10-16T13:17:13;20.40;96.70
7046;DHT22;3564;53.326;10.356;2022-10-16T13:22:55;20.50;96.40
7046;DHT22;3564;53.326;10.356;2022-10-16T13:27:59;20.40;95.60
7046;DHT22;3564;53.326;10.356;2022-10-16T13:33:20;20.40;95.80
7046;DHT22;3564;53.326;10.356;2022-10-16T13:35:51;20.40;95.70
7046;DHT22;3564;53.326;10.356;2022-10-16T13:38:20;20.40;95.60
7046;DHT22;3564;53.326;10.356;2022-10-16T13:43:51;20.40;95.60
7046;DHT22;3564;53.326;10.356;2022-10-16T13:46:24;20.30;95.50
7046;DHT22;3564;53.326;10.356;2022-10-16T13:49:02;20.30;95.70
7046;DHT22;3564;53.326;10.356;2022-10-16T13:51:28;20.40;95.80
7046;DHT22;3564;53.326;10.356;2022-10-16T13:53:55;20.50;95.90
7046;DHT22;3564;53.326;10.356;2022-10-16T13:56:25;20.60;95.70
7046;DHT22;3564;53.326;10.356;2022-10-16T13:59:05;20.70;95.60
7046;DHT22;3564;53.326;10.356;2022-10-16T14:01:44;20.70;95.30
7046;DHT22;3564;53.326;10.356;2022-10-16T14:04:21;20.80;95.30
7046;DHT22;3564;53.326;10.356;2022-10-16T14:06:49;20.90;95.30
7046;DHT22;3564;53.326;10.356;2022-10-16T14:09:25;20.90;95.00
7046;DHT22;3564;53.326;10.356;2022-10-16T14:12:01;21.00;94.90
7046;DHT22;3564;53.326;10.356;2022-10-16T14:14:47;21.00;94.40
7046;DHT22;3564;53.326;10.356;2022-10-16T14:17:16;21.00;94.30
7046;DHT22;3564;53.326;10.356;2022-10-16T14:19:46;20.90;94.40
7046;DHT22;3564;53.326;10.356;2022-10-16T14:24:57;20.90;94.70
7046;DHT22;3564;53.326;10.356;2022-10-16T14:27:34;20.80;94.70
7046;DHT22;3564;53.326;10.356;2022-10-16T14:30:17;20.80;94.60
7046;DHT22;3564;53.326;10.356;2022-10-16T14:32:54;20.60;94.80
7046;DHT22;3564;53.326;10.356;2022-10-16T14:35:38;20.60;95.00
7046;DHT22;3564;53.326;10.356;2022-10-16T14:38:06;20.60;95.00
7046;DHT22;3564;53.326;10.356;2022-10-16T14:40:35;20.70;95.10
7046;DHT22;3564;53.326;10.356;2022-10-16T14:43:02;20.70;95.20
7046;DHT22;3564;53.326;10.356;2022-10-16T14:45:31;20.90;95.20
7046;DHT22;3564;53.326;10.356;2022-10-16T14:48:03;21.00;95.10
7046;DHT22;3564;53.326;10.356;2022-10-16T14:50:29;21.00;95.10
7046;DHT22;3564;53.326;10.356;2022-10-16T14:52:55;21.10;95.00
7046;DHT22;3564;53.326;10.356;2022-10-16T14:55:21;21.20;94.80
7046;DHT22;3564;53.326;10.356;2022-10-16T14:57:47;21.30;94.90
7046;DHT22;3564;53.326;10.356;2022-10-16T15:00:22;21.40;94.80
7046;DHT22;3564;53.326;10.356;2022-10-16T15:02:49;21.40;94.60
7046;DHT22;3564;53.326;10.356;2022-10-16T15:07:40;21.40;94.40
7046;DHT22;3564;53.326;10.356;2022-10-16T15:10:06;21.40;94.60
7046;DHT22;3564;53.326;10.356;2022-10-16T15:12:32;21.40;94.40
7046;DHT22;3564;53.326;10.356;2022-10-16T15:14:57;21.40;94.50
7046;DHT22;3564;53.326;10.356;2022-10-16T15:17:23;21.40;94.50
7046;DHT22;3564;53.326;10.356;2022-10-16T15:19:50;21.40;94.60
7046;DHT22;3564;53.326;10.356;2022-10-16T15:22:16;21.30;94.50
7046;DHT22;3564;53.326;10.356;2022-10-16T15:24:43;21.30;94.50
7046;DHT22;3564;53.326;10.356;2022-10-16T15:27:09;21.20;94.50
7046;DHT22;3564;53.326;10.356;2022-10-16T15:29:34;21.20;94.50
7046;DHT22;3564;53.326;10.356;2022-10-16T15:32:00;21.10;94.40
7046;DHT22;3564;53.326;10.356;2022-10-16T15:34:26;21.10;94.40
7046;DHT22;3564;53.326;10.356;2022-10-16T15:36:51;21.00;93.80
7046;DHT22;3564;53.326;10.356;2022-10-16T15:39:19;20.80;93.80
7046;DHT22;3564;53.326;10.356;2022-10-16T15:41:48;20.70;93.80
7046;DHT22;3564;53.326;10.356;2022-10-16T15:44:16;20.70;94.00
7046;DHT22;3564;53.326;10.356;2022-10-16T15:46:42;20.60;94.10
7046;DHT22;3564;53.326;10.356;2022-10-16T15:49:09;20.60;94.20
7046;DHT22;3564;53.326;10.356;2022-10-16T15:51:38;20.50;94.20
7046;DHT22;3564;53.326;10.356;2022-10-16T15:54:04;20.50;94.30
7046;DHT22;3564;53.326;10.356;2022-10-16T15:56:30;20.50;94.30
7046;DHT22;3564;53.326;10.356;2022-10-16T15:59:01;20.50;94.30
7046;DHT22;3564;53.326;10.356;2022-10-16T16:01:27;20.40;94.30
7046;DHT22;3564;53.326;10.356;2022-10-16T16:03:54;20.40;94.40
7046;DHT22;3564;53.326;10.356;2022-10-16T16:06:21;20.40;94.50
7046;DHT22;3564;53.326;10.356;2022-10-16T16:08:49;20.30;94.60
7046;DHT22;3564;53.326;10.356;2022-10-16T16:11:16;20.30;94.90
7046;DHT22;3564;53.326;10.356;2022-10-16T16:13:42;20.30;95.30
7046;DHT22;3564;53.326;10.356;2022-10-16T16:16:14;20.20;95.50
7046;DHT22;3564;53.326;10.356;2022-10-16T16:18:40;20.20;96.00
7046;DHT22;3564;53.326;10.356;2022-10-16T16:21:06;20.10;96.30
7046;DHT22;3564;53.326;10.356;2022-10-16T16:23:32;20.00;96.50
7046;DHT22;3564;53.326;10.356;2022-10-16T16:26:08;19.90;96.60
7046;DHT22;3564;53.326;10.356;2022-10-16T16:28:35;19.80;96.70
7046;DHT22;3564;53.326;10.356;2022-10-16T16:31:01;19.70;96.80
7046;DHT22;3564;53.326;10.356;2022-10-16T16:33:26;19.70;97.00
7046;DHT22;3564;53.326;10.356;2022-10-16T16:36:00;19.60;97.00
7046;DHT22;3564;53.326;10.356;2022-10-16T16:38:26;19.50;97.20
7046;DHT22;3564;53.326;10.356;2022-10-16T16:40:53;19.40;97.20
7046;DHT22;3564;53.326;10.356;2022-10-16T16:43:22;19.30;97.20
7046;DHT22;3564;53.326;10.356;2022-10-16T16:45:48;19.20;97.30
7046;DHT22;3564;53.326;10.356;2022-10-16T16:48:13;19.10;97.40
7046;DHT22;3564;53.326;10.356;2022-10-16T16:50:39;19.10;97.50
7046;DHT22;3564;53.326;10.356;2022-10-16T16:53:04;19.00;97.50
7046;DHT22;3564;53.326;10.356;2022-10-16T16:55:33;18.90;97.60
7046;DHT22;3564;53.326;10.356;2022-10-16T16:57:58;18.90;97.60
7046;DHT22;3564;53.326;10.356;2022-10-16T17:00:24;18.80;97.60
7046;DHT22;3564;53.326;10.356;2022-10-16T17:02:50;18.70;97.60
7046;DHT22;3564;53.326;10.356;2022-10-16T17:05:16;18.70;97.70
7046;DHT22;3564;53.326;10.356;2022-10-16T17:07:41;18.60;97.70
7046;DHT22;3564;53.326;10.356;2022-10-16T17:10:07;18.50;97.80
7046;DHT22;3564;53.326;10.356;2022-10-16T17:12:33;18.50;97.90
7046;DHT22;3564;53.326;10.356;2022-10-16T17:14:58;18.40;97.80
7046;DHT22;3564;53.326;10.356;2022-10-16T17:17:24;18.40;98.00
7046;DHT22;3564;53.326;10.356;2022-10-16T17:19:50;18.30;98.10
7046;DHT22;3564;53.326;10.356;2022-10-16T17:22:16;18.30;98.20
7046;DHT22;3564;53.326;10.356;2022-10-16T17:24:42;18.20;98.10
7046;DHT22;3564;53.326;10.356;2022-10-16T17:27:08;18.20;98.20
7046;DHT22;3564;53.326;10.356;2022-10-16T17:29:34;18.10;98.30
7046;DHT22;3564;53.326;10.356;2022-10-16T17:32:00;18.00;98.20
7046;DHT22;3564;53.326;10.356;2022-10-16T17:34:26;18.00;98.30
7046;DHT22;3564;53.326;10.356;2022-10-16T17:36:51;17.90;98.30
7046;DHT22;3564;53.326;10.356;2022-10-16T17:39:17;17.90;98.20
7046;DHT22;3564;53.326;10.356;2022-10-16T17:41:44;17.80;98.30
7046;DHT22;3564;53.326;10.356;2022-10-16T17:44:11;17.70;98.40
7046;DHT22;3564;53.326;10.356;2022-10-16T17:46:48;17.70;98.50